sensor_id;sensor_type;location;lat;lon;timestamp;P1;durP1;ratioP1;P2;durP2;ratioP2
7080;SDS011;3582;51.506;11.948;2022-08-16T00:02:16;33.30;;;29.40;;
7080;SDS011;3582;51.506;11.948;2022-08-16T00:04:42;37.17;;;30.10;;
7080;SDS011;3582;51.506;11.948;2022-08-16T00:07:08;36.13;;;32.20;;
7080;SDS011;3582;51.506;11.948;2022-08-16T00:09:34;35.27;;;31.60;;
7080;SDS011;3582;51.506;11.948;2022-08-16T00:12:00;31.77;;;28.33;;
7080;SDS011;3582;51.506;11.948;2022-08-16T00:14:27;35.17;;;29.90;;
7080;SDS011;3582;51.506;11.948;2022-08-16T00:16:53;35.90;;;32.00;;
7080;SDS011;3582;51.506;11.948;2022-08-16T00:19:21;41.73;;;32.70;;
7080;SDS011;3582;51.506;11.948;2022-08-16T00:21:47;41.37;;;33.03;;
7080;SDS011;3582;51.506;11.948;2022-08-16T00:24:13;37.07;;;32.77;;
7080;SDS011;3582;51.506;11.948;2022-08-16T00:26:41;38.67;;;33.90;;
7080;SDS011;3582;51.506;11.948;2022-08-16T00:29:07;39.30;;;34.80;;
7080;SDS011;3582;51.506;11.948;2022-08-16T00:31:33;44.33;;;34.10;;
7080;SDS011;3582;51.506;11.948;2022-08-16T00:34:00;35.27;;;30.33;;
7080;SDS011;3582;51.506;11.948;2022-08-16T00:36:26;38.67;;;33.23;;
7080;SDS011;3582;51.506;11.948;2022-08-16T00:38:52;40.20;;;35.53;;
7080;SDS011;3582;51.506;11.948;2022-08-16T00:41:18;35.80;;;31.73;;
7080;SDS011;3582;51.506;11.948;2022-08-16T00:43:45;36.50;;;31.90;;
7080;SDS011;3582;51.506;11.948;2022-08-16T00:46:13;39.90;;;35.40;;
7080;SDS011;3582;51.506;11.948;2022-08-16T00:48:43;35.20;;;31.40;;
7080;SDS011;3582;51.506;11.948;2022-08-16T00:51:10;37.27;;;33.23;;
7080;SDS011;3582;51.506;11.948;2022-08-16T00:53:36;38.43;;;33.50;;
7080;SDS011;3582;51.506;11.948;2022-08-16T00:56:03;39.80;;;35.37;;
7080;SDS011;3582;51.506;11.948;2022-08-16T00:58:30;42.93;;;37.10;;
7080;SDS011;3582;51.506;11.948;2022-08-16T01:00:57;43.97;;;36.67;;
7080;SDS011;3582;51.506;11.948;2022-08-16T01:03:24;37.20;;;33.20;;
7080;SDS011;3582;51.506;11.948;2022-08-16T01:05:50;50.60;;;36.60;;
7080;SDS011;3582;51.506;11.948;2022-08-16T01:08:17;42.00;;;35.27;;
7080;SDS011;3582;51.506;11.948;2022-08-16T01:10:44;43.13;;;38.13;;
7080;SDS011;3582;51.506;11.948;2022-08-16T01:13:11;42.87;;;38.23;;
7080;SDS011;3582;51.506;11.948;2022-08-16T01:15:39;45.73;;;39.27;;
7080;SDS011;3582;51.506;11.948;2022-08-16T01:18:06;49.43;;;42.30;;
7080;SDS011;3582;51.506;11.948;2022-08-16T01:20:37;49.30;;;41.07;;
7080;SDS011;3582;51.506;11.948;2022-08-16T01:25:37;49.60;;;40.20;;
7080;SDS011;3582;51.506;11.948;2022-08-16T01:28:07;49.53;;;42.20;;
7080;SDS011;3582;51.506;11.948;2022-08-16T01:30:35;45.97;;;38.50;;
7080;SDS011;3582;51.506;11.948;2022-08-16T01:33:03;52.17;;;39.73;;
7080;SDS011;3582;51.506;11.948;2022-08-16T01:35:32;53.70;;;40.47;;
7080;SDS011;3582;51.506;11.948;2022-08-16T01:38:12;47.83;;;41.83;;
7080;SDS011;3582;51.506;11.948;2022-08-16T01:40:38;51.33;;;42.90;;
7080;SDS011;3582;51.506;11.948;2022-08-16T01:43:04;56.00;;;43.80;;
7080;SDS011;3582;51.506;11.948;2022-08-16T01:45:32;56.40;;;44.73;;
7080;SDS011;3582;51.506;11.948;2022-08-16T01:47:58;47.63;;;41.77;;
7080;SDS011;3582;51.506;11.948;2022-08-16T01:50:24;49.97;;;39.40;;
7080;SDS011;3582;51.506;11.948;2022-08-16T01:52:50;48.37;;;41.17;;
7080;SDS011;3582;51.506;11.948;2022-08-16T01:55:16;54.43;;;44.40;;
7080;SDS011;3582;51.506;11.948;2022-08-16T01:57:42;51.00;;;41.80;;
7080;SDS011;3582;51.506;11.948;2022-08-16T02:00:08;55.43;;;43.60;;
7080;SDS011;3582;51.506;11.948;2022-08-16T02:02:37;45.57;;;40.63;;
7080;SDS011;3582;51.506;11.948;2022-08-16T02:05:03;62.37;;;41.73;;
7080;SDS011;3582;51.506;11.948;2022-08-16T02:07:29;55.67;;;41.93;;
7080;SDS011;3582;51.506;11.948;2022-08-16T02:09:56;47.20;;;41.93;;
7080;SDS011;3582;51.506;11.948;2022-08-16T02:12:23;46.63;;;39.97;;
7080;SDS011;3582;51.506;11.948;2022-08-16T02:14:49;44.93;;;40.03;;
7080;SDS011;3582;51.506;11.948;2022-08-16T02:17:15;53.33;;;42.07;;
7080;SDS011;3582;51.506;11.948;2022-08-16T02:19:41;50.77;;;40.60;;
7080;SDS011;3582;51.506;11.948;2022-08-16T02:22:08;48.70;;;40.80;;
7080;SDS011;3582;51.506;11.948;2022-08-16T02:24:36;50.43;;;41.17;;
7080;SDS011;3582;51.506;11.948;2022-08-16T02:27:02;49.33;;;40.30;;
7080;SDS011;3582;51.506;11.948;2022-08-16T02:29:28;53.77;;;42.20;;
7080;SDS011;3582;51.506;11.948;2022-08-16T02:31:54;49.20;;;42.27;;
7080;SDS011;3582;51.506;11.948;2022-08-16T02:34:20;51.97;;;41.57;;
7080;SDS011;3582;51.506;11.948;2022-08-16T02:36:47;51.33;;;43.47;;
7080;SDS011;3582;51.506;11.948;2022-08-16T02:39:14;51.70;;;41.67;;
7080;SDS011;3582;51.506;11.948;2022-08-16T02:41:41;48.27;;;41.43;;
7080;SDS011;3582;51.506;11.948;2022-08-16T02:44:09;48.67;;;40.33;;
7080;SDS011;3582;51.506;11.948;2022-08-16T02:46:35;45.20;;;37.57;;
7080;SDS011;3582;51.506;11.948;2022-08-16T02:49:02;44.40;;;38.17;;
7080;SDS011;3582;51.506;11.948;2022-08-16T02:51:28;46.20;;;38.43;;
7080;SDS011;3582;51.506;11.948;2022-08-16T02:53:54;43.60;;;37.00;;
7080;SDS011;3582;51.506;11.948;2022-08-16T02:56:20;43.10;;;38.43;;
7080;SDS011;3582;51.506;11.948;2022-08-16T02:58:47;45.50;;;39.00;;
7080;SDS011;3582;51.506;11.948;2022-08-16T03:01:16;42.30;;;36.10;;
7080;SDS011;3582;51.506;11.948;2022-08-16T03:03:42;47.50;;;36.80;;
7080;SDS011;3582;51.506;11.948;2022-08-16T03:06:08;51.60;;;35.13;;
7080;SDS011;3582;51.506;11.948;2022-08-16T03:08:35;43.90;;;38.50;;
7080;SDS011;3582;51.506;11.948;2022-08-16T03:11:01;40.73;;;36.33;;
7080;SDS011;3582;51.506;11.948;2022-08-16T03:13:27;41.40;;;36.80;;
7080;SDS011;3582;51.506;11.948;2022-08-16T03:15:53;40.33;;;36.07;;
7080;SDS011;3582;51.506;11.948;2022-08-16T03:18:19;39.50;;;34.27;;
7080;SDS011;3582;51.506;11.948;2022-08-16T03:20:45;39.47;;;35.17;;
7080;SDS011;3582;51.506;11.948;2022-08-16T03:23:11;44.00;;;36.80;;
7080;SDS011;3582;51.506;11.948;2022-08-16T03:25:38;40.27;;;35.57;;
7080;SDS011;3582;51.506;11.948;2022-08-16T03:28:04;41.03;;;34.80;;
7080;SDS011;3582;51.506;11.948;2022-08-16T03:30:31;39.93;;;33.13;;
7080;SDS011;3582;51.506;11.948;2022-08-16T03:32:57;40.63;;;36.23;;
7080;SDS011;3582;51.506;11.948;2022-08-16T03:35:26;41.97;;;34.30;;
7080;SDS011;3582;51.506;11.948;2022-08-16T03:37:57;42.57;;;35.50;;
7080;SDS011;3582;51.506;11.948;2022-08-16T03:40:23;43.17;;;35.03;;
7080;SDS011;3582;51.506;11.948;2022-08-16T03:42:49;46.07;;;36.77;;
7080;SDS011;3582;51.506;11.948;2022-08-16T03:45:15;44.07;;;35.47;;
7080;SDS011;3582;51.506;11.948;2022-08-16T03:47:41;57.10;;;51.40;;
7080;SDS011;3582;51.506;11.948;2022-08-16T03:50:10;42.80;;;34.70;;
7080;SDS011;3582;51.506;11.948;2022-08-16T03:52:36;41.13;;;36.17;;
7080;SDS011;3582;51.506;11.948;2022-08-16T03:55:03;40.17;;;35.93;;
7080;SDS011;3582;51.506;11.948;2022-08-16T03:57:29;37.30;;;33.30;;
7080;SDS011;3582;51.506;11.948;2022-08-16T03:59:55;38.43;;;34.30;;
7080;SDS011;3582;51.506;11.948;2022-08-16T04:02:21;36.97;;;32.93;;
7080;SDS011;3582;51.506;11.948;2022-08-16T04:04:48;37.40;;;30.67;;
7080;SDS011;3582;51.506;11.948;2022-08-16T04:07:14;37.17;;;33.33;;
7080;SDS011;3582;51.506;11.948;2022-08-16T04:09:40;39.20;;;30.80;;
7080;SDS011;3582;51.506;11.948;2022-08-16T04:12:07;40.07;;;34.20;;
7080;SDS011;3582;51.506;11.948;2022-08-16T04:14:33;34.70;;;30.90;;
7080;SDS011;3582;51.506;11.948;2022-08-16T04:16:59;36.00;;;32.10;;
7080;SDS011;3582;51.506;11.948;2022-08-16T04:19:26;35.67;;;31.70;;
7080;SDS011;3582;51.506;11.948;2022-08-16T04:21:52;34.23;;;30.63;;
7080;SDS011;3582;51.506;11.948;2022-08-16T04:24:18;35.00;;;31.23;;
7080;SDS011;3582;51.506;11.948;2022-08-16T04:26:44;34.57;;;30.87;;
7080;SDS011;3582;51.506;11.948;2022-08-16T04:29:10;35.33;;;31.47;;
7080;SDS011;3582;51.506;11.948;2022-08-16T04:31:35;36.40;;;30.73;;
7080;SDS011;3582;51.506;11.948;2022-08-16T04:34:01;35.53;;;29.20;;
7080;SDS011;3582;51.506;11.948;2022-08-16T04:36:27;32.90;;;29.70;;
7080;SDS011;3582;51.506;11.948;2022-08-16T04:38:53;32.90;;;29.30;;
7080;SDS011;3582;51.506;11.948;2022-08-16T04:41:20;31.60;;;28.27;;
7080;SDS011;3582;51.506;11.948;2022-08-16T04:43:46;33.10;;;27.13;;
7080;SDS011;3582;51.506;11.948;2022-08-16T04:46:12;30.27;;;27.07;;
7080;SDS011;3582;51.506;11.948;2022-08-16T04:48:40;30.10;;;26.97;;
7080;SDS011;3582;51.506;11.948;2022-08-16T04:51:07;27.27;;;24.57;;
7080;SDS011;3582;51.506;11.948;2022-08-16T04:53:33;31.87;;;27.40;;
7080;SDS011;3582;51.506;11.948;2022-08-16T04:55:59;28.57;;;25.60;;
7080;SDS011;3582;51.506;11.948;2022-08-16T04:58:25;30.50;;;25.93;;
7080;SDS011;3582;51.506;11.948;2022-08-16T05:00:52;27.57;;;24.63;;
7080;SDS011;3582;51.506;11.948;2022-08-16T05:03:18;31.10;;;24.97;;
7080;SDS011;3582;51.506;11.948;2022-08-16T05:05:44;28.43;;;24.50;;
7080;SDS011;3582;51.506;11.948;2022-08-16T05:08:11;25.80;;;23.07;;
7080;SDS011;3582;51.506;11.948;2022-08-16T05:10:37;26.73;;;24.00;;
7080;SDS011;3582;51.506;11.948;2022-08-16T05:13:03;23.43;;;20.97;;
7080;SDS011;3582;51.506;11.948;2022-08-16T05:15:29;23.87;;;21.10;;
7080;SDS011;3582;51.506;11.948;2022-08-16T05:17:56;24.53;;;21.97;;
7080;SDS011;3582;51.506;11.948;2022-08-16T05:20:22;35.23;;;19.43;;
7080;SDS011;3582;51.506;11.948;2022-08-16T05:22:48;22.87;;;19.90;;
7080;SDS011;3582;51.506;11.948;2022-08-16T05:25:14;21.20;;;19.00;;
7080;SDS011;3582;51.506;11.948;2022-08-16T05:27:40;21.73;;;19.50;;
7080;SDS011;3582;51.506;11.948;2022-08-16T05:30:07;24.70;;;21.23;;
7080;SDS011;3582;51.506;11.948;2022-08-16T05:32:34;20.17;;;18.23;;
7080;SDS011;3582;51.506;11.948;2022-08-16T05:35:00;26.63;;;18.43;;
7080;SDS011;3582;51.506;11.948;2022-08-16T05:37:27;16.70;;;15.03;;
7080;SDS011;3582;51.506;11.948;2022-08-16T05:39:52;16.57;;;15.07;;
7080;SDS011;3582;51.506;11.948;2022-08-16T05:42:18;13.93;;;12.50;;
7080;SDS011;3582;51.506;11.948;2022-08-16T05:44:44;15.10;;;12.60;;
7080;SDS011;3582;51.506;11.948;2022-08-16T05:47:10;17.73;;;15.90;;
7080;SDS011;3582;51.506;11.948;2022-08-16T05:49:37;22.57;;;14.57;;
7080;SDS011;3582;51.506;11.948;2022-08-16T05:52:03;15.70;;;13.70;;
7080;SDS011;3582;51.506;11.948;2022-08-16T05:54:29;17.03;;;13.40;;
7080;SDS011;3582;51.506;11.948;2022-08-16T05:56:55;14.30;;;13.00;;
7080;SDS011;3582;51.506;11.948;2022-08-16T05:59:22;13.83;;;12.63;;
7080;SDS011;3582;51.506;11.948;2022-08-16T06:01:48;13.80;;;12.57;;
7080;SDS011;3582;51.506;11.948;2022-08-16T06:04:16;13.17;;;11.93;;
7080;SDS011;3582;51.506;11.948;2022-08-16T06:06:43;17.60;;;15.70;;
7080;SDS011;3582;51.506;11.948;2022-08-16T06:09:10;15.13;;;12.47;;
7080;SDS011;3582;51.506;11.948;2022-08-16T06:11:36;13.60;;;11.57;;
7080;SDS011;3582;51.506;11.948;2022-08-16T06:14:03;13.20;;;11.70;;
7080;SDS011;3582;51.506;11.948;2022-08-16T06:16:29;11.50;;;10.53;;
7080;SDS011;3582;51.506;11.948;2022-08-16T06:18:55;11.43;;;10.43;;
7080;SDS011;3582;51.506;11.948;2022-08-16T06:21:22;11.80;;;10.60;;
7080;SDS011;3582;51.506;11.948;2022-08-16T06:23:48;11.20;;;10.27;;
7080;SDS011;3582;51.506;11.948;2022-08-16T06:26:14;12.33;;;11.17;;
7080;SDS011;3582;51.506;11.948;2022-08-16T06:28:40;10.63;;;9.63;;
7080;SDS011;3582;51.506;11.948;2022-08-16T06:31:07;11.80;;;10.90;;
7080;SDS011;3582;51.506;11.948;2022-08-16T06:33:33;12.07;;;10.90;;
7080;SDS011;3582;51.506;11.948;2022-08-16T06:35:59;12.30;;;10.50;;
7080;SDS011;3582;51.506;11.948;2022-08-16T06:38:25;11.90;;;10.80;;
7080;SDS011;3582;51.506;11.948;2022-08-16T06:40:52;11.20;;;10.30;;
7080;SDS011;3582;51.506;11.948;2022-08-16T06:43:18;14.10;;;11.00;;
7080;SDS011;3582;51.506;11.948;2022-08-16T06:45:44;10.80;;;9.83;;
7080;SDS011;3582;51.506;11.948;2022-08-16T06:48:10;9.87;;;8.97;;
7080;SDS011;3582;51.506;11.948;2022-08-16T06:50:36;10.57;;;9.57;;
7080;SDS011;3582;51.506;11.948;2022-08-16T06:53:02;10.40;;;9.50;;
7080;SDS011;3582;51.506;11.948;2022-08-16T06:55:28;11.90;;;9.63;;
7080;SDS011;3582;51.506;11.948;2022-08-16T06:57:54;10.43;;;9.70;;
7080;SDS011;3582;51.506;11.948;2022-08-16T07:00:21;13.40;;;10.00;;
7080;SDS011;3582;51.506;11.948;2022-08-16T07:02:47;9.77;;;8.73;;
7080;SDS011;3582;51.506;11.948;2022-08-16T07:05:14;10.43;;;8.50;;
7080;SDS011;3582;51.506;11.948;2022-08-16T07:07:41;13.77;;;10.03;;
7080;SDS011;3582;51.506;11.948;2022-08-16T07:10:08;9.43;;;8.33;;
7080;SDS011;3582;51.506;11.948;2022-08-16T07:12:34;10.30;;;9.50;;
7080;SDS011;3582;51.506;11.948;2022-08-16T07:15:00;9.20;;;8.47;;
7080;SDS011;3582;51.506;11.948;2022-08-16T07:17:27;10.00;;;9.20;;
7080;SDS011;3582;51.506;11.948;2022-08-16T07:19:54;11.63;;;10.63;;
7080;SDS011;3582;51.506;11.948;2022-08-16T07:22:20;9.37;;;8.80;;
7080;SDS011;3582;51.506;11.948;2022-08-16T07:24:46;10.57;;;9.57;;
7080;SDS011;3582;51.506;11.948;2022-08-16T07:27:12;12.23;;;8.90;;
7080;SDS011;3582;51.506;11.948;2022-08-16T07:29:39;9.70;;;8.80;;
7080;SDS011;3582;51.506;11.948;2022-08-16T07:32:05;8.33;;;7.77;;
7080;SDS011;3582;51.506;11.948;2022-08-16T07:34:32;11.73;;;8.30;;
7080;SDS011;3582;51.506;11.948;2022-08-16T07:37:06;9.63;;;8.63;;
7080;SDS011;3582;51.506;11.948;2022-08-16T07:39:32;9.97;;;9.03;;
7080;SDS011;3582;51.506;11.948;2022-08-16T07:41:59;9.33;;;8.53;;
7080;SDS011;3582;51.506;11.948;2022-08-16T07:44:25;10.87;;;9.83;;
7080;SDS011;3582;51.506;11.948;2022-08-16T07:46:55;8.43;;;7.63;;
7080;SDS011;3582;51.506;11.948;2022-08-16T07:49:21;17.83;;;8.17;;
7080;SDS011;3582;51.506;11.948;2022-08-16T07:51:47;10.53;;;9.10;;
7080;SDS011;3582;51.506;11.948;2022-08-16T07:54:13;8.90;;;8.13;;
7080;SDS011;3582;51.506;11.948;2022-08-16T07:56:40;8.90;;;8.00;;
7080;SDS011;3582;51.506;11.948;2022-08-16T07:59:05;9.47;;;8.40;;
7080;SDS011;3582;51.506;11.948;2022-08-16T08:01:32;9.60;;;8.57;;
7080;SDS011;3582;51.506;11.948;2022-08-16T08:03:58;9.90;;;9.03;;
7080;SDS011;3582;51.506;11.948;2022-08-16T08:06:25;9.03;;;8.23;;
7080;SDS011;3582;51.506;11.948;2022-08-16T08:08:55;9.80;;;8.80;;
7080;SDS011;3582;51.506;11.948;2022-08-16T08:11:21;10.57;;;9.63;;
7080;SDS011;3582;51.506;11.948;2022-08-16T08:13:48;8.67;;;7.90;;
7080;SDS011;3582;51.506;11.948;2022-08-16T08:16:14;9.00;;;8.20;;
7080;SDS011;3582;51.506;11.948;2022-08-16T08:18:40;8.73;;;8.00;;
7080;SDS011;3582;51.506;11.948;2022-08-16T08:21:06;8.00;;;7.50;;
7080;SDS011;3582;51.506;11.948;2022-08-16T08:23:33;7.93;;;7.23;;
7080;SDS011;3582;51.506;11.948;2022-08-16T08:26:02;8.03;;;7.13;;
7080;SDS011;3582;51.506;11.948;2022-08-16T08:28:28;8.63;;;8.03;;
7080;SDS011;3582;51.506;11.948;2022-08-16T08:30:55;8.97;;;7.27;;
7080;SDS011;3582;51.506;11.948;2022-08-16T08:33:21;8.87;;;8.17;;
7080;SDS011;3582;51.506;11.948;2022-08-16T08:35:47;9.93;;;9.13;;
7080;SDS011;3582;51.506;11.948;2022-08-16T08:38:13;11.63;;;7.60;;
7080;SDS011;3582;51.506;11.948;2022-08-16T08:40:41;7.90;;;7.20;;
7080;SDS011;3582;51.506;11.948;2022-08-16T08:43:08;9.03;;;7.50;;
7080;SDS011;3582;51.506;11.948;2022-08-16T08:45:37;15.03;;;7.17;;
7080;SDS011;3582;51.506;11.948;2022-08-16T08:48:03;9.47;;;8.77;;
7080;SDS011;3582;51.506;11.948;2022-08-16T08:50:29;16.77;;;7.20;;
7080;SDS011;3582;51.506;11.948;2022-08-16T08:52:55;7.83;;;6.93;;
7080;SDS011;3582;51.506;11.948;2022-08-16T08:55:21;13.67;;;7.70;;
7080;SDS011;3582;51.506;11.948;2022-08-16T08:57:47;10.60;;;6.47;;
7080;SDS011;3582;51.506;11.948;2022-08-16T09:00:15;7.30;;;6.70;;
7080;SDS011;3582;51.506;11.948;2022-08-16T09:02:42;9.80;;;6.30;;
7080;SDS011;3582;51.506;11.948;2022-08-16T09:05:08;6.90;;;6.30;;
7080;SDS011;3582;51.506;11.948;2022-08-16T09:07:35;7.10;;;6.43;;
7080;SDS011;3582;51.506;11.948;2022-08-16T09:10:02;8.70;;;5.60;;
7080;SDS011;3582;51.506;11.948;2022-08-16T09:12:28;7.50;;;5.93;;
7080;SDS011;3582;51.506;11.948;2022-08-16T09:14:54;6.30;;;5.70;;
7080;SDS011;3582;51.506;11.948;2022-08-16T09:17:20;5.80;;;5.30;;
7080;SDS011;3582;51.506;11.948;2022-08-16T09:19:46;12.37;;;6.67;;
7080;SDS011;3582;51.506;11.948;2022-08-16T09:22:12;5.87;;;5.37;;
7080;SDS011;3582;51.506;11.948;2022-08-16T09:24:38;7.80;;;6.50;;
7080;SDS011;3582;51.506;11.948;2022-08-16T09:27:04;7.43;;;6.80;;
7080;SDS011;3582;51.506;11.948;2022-08-16T09:29:30;12.07;;;6.80;;
7080;SDS011;3582;51.506;11.948;2022-08-16T09:31:56;6.20;;;5.70;;
7080;SDS011;3582;51.506;11.948;2022-08-16T09:34:23;7.83;;;6.50;;
7080;SDS011;3582;51.506;11.948;2022-08-16T09:36:49;5.13;;;4.70;;
7080;SDS011;3582;51.506;11.948;2022-08-16T09:39:15;6.43;;;5.30;;
7080;SDS011;3582;51.506;11.948;2022-08-16T09:41:42;9.73;;;6.20;;
7080;SDS011;3582;51.506;11.948;2022-08-16T09:44:08;6.60;;;6.10;;
7080;SDS011;3582;51.506;11.948;2022-08-16T09:46:34;5.47;;;5.17;;
7080;SDS011;3582;51.506;11.948;2022-08-16T09:49:00;7.70;;;6.07;;
7080;SDS011;3582;51.506;11.948;2022-08-16T09:51:26;5.80;;;5.00;;
7080;SDS011;3582;51.506;11.948;2022-08-16T09:53:53;5.63;;;5.17;;
7080;SDS011;3582;51.506;11.948;2022-08-16T09:56:27;6.30;;;5.80;;
7080;SDS011;3582;51.506;11.948;2022-08-16T09:58:54;5.80;;;5.23;;
7080;SDS011;3582;51.506;11.948;2022-08-16T10:01:20;5.43;;;4.80;;
7080;SDS011;3582;51.506;11.948;2022-08-16T10:03:47;6.57;;;6.17;;
7080;SDS011;3582;51.506;11.948;2022-08-16T10:06:13;7.23;;;4.97;;
7080;SDS011;3582;51.506;11.948;2022-08-16T10:08:39;5.70;;;5.40;;
7080;SDS011;3582;51.506;11.948;2022-08-16T10:11:04;5.07;;;4.77;;
7080;SDS011;3582;51.506;11.948;2022-08-16T10:13:49;7.30;;;5.70;;
7080;SDS011;3582;51.506;11.948;2022-08-16T10:16:15;6.57;;;4.50;;
7080;SDS011;3582;51.506;11.948;2022-08-16T10:18:41;4.60;;;4.30;;
7080;SDS011;3582;51.506;11.948;2022-08-16T10:21:07;7.30;;;5.67;;
7080;SDS011;3582;51.506;11.948;2022-08-16T10:23:33;4.67;;;4.27;;
7080;SDS011;3582;51.506;11.948;2022-08-16T10:26:00;4.77;;;4.37;;
7080;SDS011;3582;51.506;11.948;2022-08-16T10:28:27;5.87;;;5.27;;
7080;SDS011;3582;51.506;11.948;2022-08-16T10:30:53;4.97;;;4.57;;
7080;SDS011;3582;51.506;11.948;2022-08-16T10:33:19;5.37;;;3.90;;
7080;SDS011;3582;51.506;11.948;2022-08-16T10:35:45;6.27;;;4.57;;
7080;SDS011;3582;51.506;11.948;2022-08-16T10:38:12;4.83;;;4.40;;
7080;SDS011;3582;51.506;11.948;2022-08-16T10:40:40;4.87;;;4.17;;
7080;SDS011;3582;51.506;11.948;2022-08-16T10:43:06;4.07;;;3.87;;
7080;SDS011;3582;51.506;11.948;2022-08-16T10:45:33;4.17;;;3.60;;
7080;SDS011;3582;51.506;11.948;2022-08-16T10:48:00;5.20;;;4.80;;
7080;SDS011;3582;51.506;11.948;2022-08-16T10:50:27;6.40;;;4.43;;
7080;SDS011;3582;51.506;11.948;2022-08-16T10:52:53;4.80;;;4.30;;
7080;SDS011;3582;51.506;11.948;2022-08-16T10:55:20;4.97;;;4.47;;
7080;SDS011;3582;51.506;11.948;2022-08-16T10:57:46;4.53;;;4.13;;
7080;SDS011;3582;51.506;11.948;2022-08-16T11:00:14;7.13;;;6.53;;
7080;SDS011;3582;51.506;11.948;2022-08-16T11:02:41;4.70;;;4.27;;
7080;SDS011;3582;51.506;11.948;2022-08-16T11:05:08;5.20;;;4.70;;
7080;SDS011;3582;51.506;11.948;2022-08-16T11:07:36;5.27;;;4.87;;
7080;SDS011;3582;51.506;11.948;2022-08-16T11:10:03;4.30;;;4.00;;
7080;SDS011;3582;51.506;11.948;2022-08-16T11:12:29;5.63;;;5.20;;
7080;SDS011;3582;51.506;11.948;2022-08-16T11:14:55;4.43;;;4.03;;
7080;SDS011;3582;51.506;11.948;2022-08-16T11:17:21;5.10;;;4.17;;
7080;SDS011;3582;51.506;11.948;2022-08-16T11:19:47;5.23;;;4.33;;
7080;SDS011;3582;51.506;11.948;2022-08-16T11:22:13;4.20;;;4.00;;
7080;SDS011;3582;51.506;11.948;2022-08-16T11:24:39;4.80;;;4.50;;
7080;SDS011;3582;51.506;11.948;2022-08-16T11:27:07;4.00;;;3.70;;
7080;SDS011;3582;51.506;11.948;2022-08-16T11:29:33;4.13;;;3.83;;
7080;SDS011;3582;51.506;11.948;2022-08-16T11:32:00;5.93;;;4.43;;
7080;SDS011;3582;51.506;11.948;2022-08-16T11:34:26;4.67;;;3.97;;
7080;SDS011;3582;51.506;11.948;2022-08-16T11:36:52;8.60;;;4.77;;
7080;SDS011;3582;51.506;11.948;2022-08-16T11:39:18;9.00;;;4.17;;
7080;SDS011;3582;51.506;11.948;2022-08-16T11:41:44;15.70;;;14.40;;
7080;SDS011;3582;51.506;11.948;2022-08-16T11:44:10;5.93;;;5.37;;
7080;SDS011;3582;51.506;11.948;2022-08-16T11:46:36;9.13;;;5.80;;
7080;SDS011;3582;51.506;11.948;2022-08-16T11:49:03;5.30;;;4.90;;
7080;SDS011;3582;51.506;11.948;2022-08-16T11:51:29;4.80;;;4.40;;
7080;SDS011;3582;51.506;11.948;2022-08-16T11:53:55;4.63;;;4.23;;
7080;SDS011;3582;51.506;11.948;2022-08-16T11:56:21;4.83;;;4.53;;
7080;SDS011;3582;51.506;11.948;2022-08-16T11:58:47;5.20;;;4.70;;
7080;SDS011;3582;51.506;11.948;2022-08-16T12:01:13;5.27;;;4.87;;
7080;SDS011;3582;51.506;11.948;2022-08-16T12:03:39;4.23;;;4.00;;
7080;SDS011;3582;51.506;11.948;2022-08-16T12:06:10;4.60;;;4.27;;
7080;SDS011;3582;51.506;11.948;2022-08-16T12:08:37;4.07;;;3.80;;
7080;SDS011;3582;51.506;11.948;2022-08-16T12:11:03;5.30;;;4.87;;
7080;SDS011;3582;51.506;11.948;2022-08-16T12:13:29;4.90;;;4.60;;
7080;SDS011;3582;51.506;11.948;2022-08-16T12:15:56;5.23;;;4.73;;
7080;SDS011;3582;51.506;11.948;2022-08-16T12:18:22;6.40;;;3.90;;
7080;SDS011;3582;51.506;11.948;2022-08-16T12:20:48;8.20;;;4.97;;
7080;SDS011;3582;51.506;11.948;2022-08-16T12:23:14;4.77;;;4.30;;
7080;SDS011;3582;51.506;11.948;2022-08-16T12:25:41;6.37;;;5.60;;
7080;SDS011;3582;51.506;11.948;2022-08-16T12:28:07;4.80;;;4.40;;
7080;SDS011;3582;51.506;11.948;2022-08-16T12:30:35;3.60;;;3.40;;
7080;SDS011;3582;51.506;11.948;2022-08-16T12:33:02;5.50;;;3.37;;
7080;SDS011;3582;51.506;11.948;2022-08-16T12:35:29;4.57;;;4.17;;
7080;SDS011;3582;51.506;11.948;2022-08-16T12:37:56;3.83;;;3.10;;
7080;SDS011;3582;51.506;11.948;2022-08-16T12:40:24;4.13;;;3.83;;
7080;SDS011;3582;51.506;11.948;2022-08-16T12:42:51;4.83;;;4.53;;
7080;SDS011;3582;51.506;11.948;2022-08-16T12:45:18;7.33;;;4.50;;
7080;SDS011;3582;51.506;11.948;2022-08-16T12:47:44;4.33;;;3.90;;
7080;SDS011;3582;51.506;11.948;2022-08-16T12:50:29;6.70;;;4.63;;
7080;SDS011;3582;51.506;11.948;2022-08-16T12:52:55;4.90;;;4.07;;
7080;SDS011;3582;51.506;11.948;2022-08-16T12:55:21;6.70;;;4.77;;
7080;SDS011;3582;51.506;11.948;2022-08-16T12:57:49;6.40;;;5.80;;
7080;SDS011;3582;51.506;11.948;2022-08-16T13:00:16;4.50;;;4.10;;
7080;SDS011;3582;51.506;11.948;2022-08-16T13:02:42;9.53;;;4.17;;
7080;SDS011;3582;51.506;11.948;2022-08-16T13:05:08;3.70;;;3.50;;
7080;SDS011;3582;51.506;11.948;2022-08-16T13:07:38;6.90;;;4.30;;
7080;SDS011;3582;51.506;11.948;2022-08-16T13:10:04;4.73;;;4.00;;
7080;SDS011;3582;51.506;11.948;2022-08-16T13:12:36;5.77;;;3.87;;
7080;SDS011;3582;51.506;11.948;2022-08-16T13:15:07;4.87;;;3.47;;
7080;SDS011;3582;51.506;11.948;2022-08-16T13:17:35;3.90;;;3.50;;
7080;SDS011;3582;51.506;11.948;2022-08-16T13:20:01;4.07;;;3.73;;
7080;SDS011;3582;51.506;11.948;2022-08-16T13:22:27;5.03;;;4.60;;
7080;SDS011;3582;51.506;11.948;2022-08-16T13:24:53;5.00;;;4.53;;
7080;SDS011;3582;51.506;11.948;2022-08-16T13:27:19;5.90;;;4.03;;
7080;SDS011;3582;51.506;11.948;2022-08-16T13:29:45;5.13;;;3.93;;
7080;SDS011;3582;51.506;11.948;2022-08-16T13:32:11;6.63;;;3.87;;
7080;SDS011;3582;51.506;11.948;2022-08-16T13:34:37;5.47;;;3.83;;
7080;SDS011;3582;51.506;11.948;2022-08-16T13:37:03;5.90;;;4.53;;
7080;SDS011;3582;51.506;11.948;2022-08-16T13:39:29;5.40;;;5.00;;
7080;SDS011;3582;51.506;11.948;2022-08-16T13:41:56;8.70;;;4.73;;
7080;SDS011;3582;51.506;11.948;2022-08-16T13:44:22;4.30;;;3.93;;
7080;SDS011;3582;51.506;11.948;2022-08-16T13:46:48;5.27;;;4.20;;
7080;SDS011;3582;51.506;11.948;2022-08-16T13:49:15;4.83;;;4.40;;
7080;SDS011;3582;51.506;11.948;2022-08-16T13:51:41;4.67;;;4.23;;
7080;SDS011;3582;51.506;11.948;2022-08-16T13:54:07;4.97;;;4.47;;
7080;SDS011;3582;51.506;11.948;2022-08-16T13:56:33;5.50;;;5.00;;
7080;SDS011;3582;51.506;11.948;2022-08-16T13:59:00;4.40;;;4.10;;
7080;SDS011;3582;51.506;11.948;2022-08-16T14:01:26;4.00;;;3.70;;
7080;SDS011;3582;51.506;11.948;2022-08-16T14:03:52;5.07;;;4.17;;
7080;SDS011;3582;51.506;11.948;2022-08-16T14:06:19;4.20;;;3.90;;
7080;SDS011;3582;51.506;11.948;2022-08-16T14:08:45;4.33;;;3.93;;
7080;SDS011;3582;51.506;11.948;2022-08-16T14:11:11;4.13;;;3.83;;
7080;SDS011;3582;51.506;11.948;2022-08-16T14:13:38;3.80;;;3.57;;
7080;SDS011;3582;51.506;11.948;2022-08-16T14:16:04;5.10;;;4.00;;
7080;SDS011;3582;51.506;11.948;2022-08-16T14:18:30;4.73;;;4.03;;
7080;SDS011;3582;51.506;11.948;2022-08-16T14:20:56;4.33;;;4.07;;
7080;SDS011;3582;51.506;11.948;2022-08-16T14:23:22;4.40;;;3.90;;
7080;SDS011;3582;51.506;11.948;2022-08-16T14:25:48;5.00;;;4.30;;
7080;SDS011;3582;51.506;11.948;2022-08-16T14:28:14;4.90;;;4.40;;
7080;SDS011;3582;51.506;11.948;2022-08-16T14:30:40;4.30;;;4.00;;
7080;SDS011;3582;51.506;11.948;2022-08-16T14:33:06;4.70;;;4.40;;
7080;SDS011;3582;51.506;11.948;2022-08-16T14:35:33;4.53;;;4.23;;
7080;SDS011;3582;51.506;11.948;2022-08-16T14:37:59;4.43;;;4.03;;
7080;SDS011;3582;51.506;11.948;2022-08-16T14:40:25;7.73;;;4.17;;
7080;SDS011;3582;51.506;11.948;2022-08-16T14:42:52;4.40;;;3.80;;
7080;SDS011;3582;51.506;11.948;2022-08-16T14:45:19;5.23;;;4.73;;
7080;SDS011;3582;51.506;11.948;2022-08-16T14:47:45;7.20;;;3.97;;